Time;durP1;ratioP1;P1;durP2;ratioP2;P2;SDS_P1;SDS_P2;PMS_P1;PMS_P2;Temp;Humidity;BMP_temperature;BMP_pressure;BME280_temperature;BME280_humidity;BME280_pressure;Samples;Min_cycle;Max_cycle;Signal;HPM_P1;HPM_P2
2022/10/08 00:01:26;;;;;;;18.05;7.72;;;;;;;8.96;100.00;98452.34;5122577;27;20087;-80
2022/10/08 00:03:53;;;;;;;14.10;7.70;;;;;;;8.96;100.00;98454.16;5142403;27;20015;-80
2022/10/08 00:06:39;;;;;;;14.68;7.13;;;;;;;8.99;100.00;98454.91;5104919;27;20041;-80
2022/10/08 00:09:05;;;;;;;17.90;7.70;;;;;;;8.91;100.00;98443.69;5123240;27;20035;-80
2022/10/08 00:11:34;;;;;;;16.77;8.23;;;;;;;8.82;100.00;98436.06;5125547;27;20027;-80
2022/10/08 00:14:03;;;;;;;15.90;8.48;;;;;;;8.88;100.00;98449.16;5123823;27;20127;-79
2022/10/08 00:16:47;;;;;;;18.15;8.85;;;;;;;8.94;100.00;98454.22;5124681;27;20023;-80
2022/10/08 00:19:14;;;;;;;23.42;8.07;;;;;;;8.95;100.00;98453.28;5118784;27;20026;-79
2022/10/08 00:21:42;;;;;;;21.83;7.93;;;;;;;8.87;100.00;98454.53;5125592;28;20025;-79
2022/10/08 00:24:14;;;;;;;13.82;6.90;;;;;;;8.70;100.00;98440.06;5125937;28;20068;-79
2022/10/08 00:26:40;;;;;;;15.30;7.50;;;;;;;8.60;100.00;98432.50;5110082;28;20047;-80
2022/10/08 00:29:06;;;;;;;12.45;7.60;;;;;;;8.48;100.00;98435.66;5125542;28;20023;-78
2022/10/08 00:31:39;;;;;;;12.68;6.80;;;;;;;8.40;100.00;98421.78;5125083;28;20046;-79
2022/10/08 00:34:08;;;;;;;13.85;7.40;;;;;;;8.42;100.00;98430.56;5124537;28;20042;-80
2022/10/08 00:36:36;;;;;;;13.18;6.68;;;;;;;8.44;100.00;98434.03;5144922;28;20494;-80
2022/10/08 00:39:07;;;;;;;17.25;8.07;;;;;;;8.46;100.00;98432.19;5108474;28;20034;-79
2022/10/08 00:41:37;;;;;;;16.20;7.03;;;;;;;8.46;100.00;98432.19;5107619;28;20015;-80
2022/10/08 00:44:41;;;;;;;13.85;6.53;;;;;;;8.46;100.00;98435.72;5123805;28;20027;-80
2022/10/08 00:47:14;;;;;;;17.83;7.18;;;;;;;8.48;100.00;98430.34;5140381;28;20466;-80
2022/10/08 00:49:40;;;;;;;18.15;7.70;;;;;;;8.38;100.00;98418.28;5143123;28;20489;-80
2022/10/08 00:52:06;;;;;;;12.98;7.65;;;;;;;8.35;100.00;98419.28;5124152;28;20050;-80
2022/10/08 00:54:31;;;;;;;14.13;7.75;;;;;;;8.38;100.00;98427.16;5125963;28;20023;-80
2022/10/08 00:56:57;;;;;;;13.38;7.50;;;;;;;8.45;100.00;98431.34;5144182;28;20463;-79
2022/10/08 00:59:23;;;;;;;17.23;7.53;;;;;;;8.51;100.00;98432.88;5126343;28;20027;-78
2022/10/08 01:01:48;;;;;;;15.07;7.78;;;;;;;8.48;100.00;98427.66;5124084;28;20031;-79
2022/10/08 01:04:14;;;;;;;14.40;7.80;;;;;;;8.55;100.00;98432.69;5123235;28;20027;-78
2022/10/08 01:06:46;;;;;;;14.02;7.55;;;;;;;8.51;100.00;98423.09;5114803;27;20007;-80
2022/10/08 01:09:33;;;;;;;12.53;7.93;;;;;;;8.50;100.00;98424.00;5145854;27;20574;-80
2022/10/08 01:12:09;;;;;;;12.95;7.55;;;;;;;8.47;100.00;98421.47;5110826;27;20023;-78
2022/10/08 01:14:41;;;;;;;18.85;7.47;;;;;;;8.52;100.00;98437.28;5111802;27;20091;-79
2022/10/08 01:17:25;;;;;;;14.77;7.60;;;;;;;8.53;100.00;98431.00;5147045;27;20028;-78
2022/10/08 01:20:30;;;;;;;21.00;8.00;;;;;;;8.39;100.00;98414.69;5147659;27;20550;-79
2022/10/08 01:23:04;;;;;;;13.88;6.22;;;;;;;8.23;100.00;98394.88;5107266;27;20065;-78
2022/10/08 01:25:56;;;;;;;13.82;7.45;;;;;;;8.21;100.00;98399.41;5144862;27;20026;-79
2022/10/08 01:28:27;;;;;;;15.77;8.00;;;;;;;8.23;100.00;98409.06;5145439;27;20393;-78
2022/10/08 01:31:02;;;;;;;17.95;7.38;;;;;;;8.23;100.00;98413.53;5127358;27;20070;-78
2022/10/08 01:33:37;;;;;;;13.63;7.80;;;;;;;8.18;100.00;98403.91;5121879;27;20537;-78
2022/10/08 01:36:04;;;;;;;16.33;8.38;;;;;;;8.26;100.00;98402.75;5126782;27;20044;-80
2022/10/08 01:38:32;;;;;;;15.23;8.73;;;;;;;8.22;100.00;98415.31;5109509;27;20091;-79
2022/10/08 01:41:01;;;;;;;15.05;7.45;;;;;;;8.15;100.00;98401.34;5109000;27;20122;-80
2022/10/08 01:43:30;;;;;;;19.05;7.90;;;;;;;8.22;100.00;98411.78;5126312;27;20059;-80
2022/10/08 01:45:59;;;;;;;14.20;7.88;;;;;;;8.16;100.00;98403.09;5128013;27;20027;-79
2022/10/08 01:48:29;;;;;;;16.02;8.35;;;;;;;8.14;100.00;98404.97;5110778;27;20088;-79
2022/10/08 01:51:31;;;;;;;18.20;8.70;;;;;;;8.18;100.00;98411.88;5126889;27;20029;-79
2022/10/08 01:54:00;;;;;;;21.88;8.70;;;;;;;8.11;100.00;98409.53;5107782;27;20054;-79
2022/10/08 01:56:26;;;;;;;16.05;8.45;;;;;;;8.00;100.00;98404.59;5123163;27;20490;-79
2022/10/08 01:59:02;;;;;;;15.00;7.60;;;;;;;7.97;100.00;98410.06;5124396;27;20023;-79
2022/10/08 02:01:49;;;;;;;12.10;6.95;;;;;;;7.95;100.00;98403.91;5112807;27;20034;-79
2022/10/08 02:04:37;;;;;;;11.27;6.18;;;;;;;7.91;100.00;98404.94;5128063;27;20398;-79
2022/10/08 02:07:08;;;;;;;13.07;7.25;;;;;;;7.84;100.00;98398.16;5127024;27;20033;-80
2022/10/08 02:09:40;;;;;;;17.77;8.00;;;;;;;7.73;100.00;98408.31;5118164;27;20019;-79
2022/10/08 02:12:06;;;;;;;13.63;7.32;;;;;;;7.76;100.00;98408.19;5128155;27;20035;-79
2022/10/08 02:14:33;;;;;;;18.50;7.40;;;;;;;7.82;100.00;98413.28;5113105;27;20478;-79
2022/10/08 02:17:02;;;;;;;12.63;7.75;;;;;;;7.93;100.00;98420.91;5113283;27;20023;-79
2022/10/08 02:19:45;;;;;;;12.13;7.43;;;;;;;7.83;100.00;98419.50;5129935;27;20030;-80
2022/10/08 02:22:15;;;;;;;16.30;7.85;;;;;;;7.70;100.00;98408.41;5130832;27;20038;-80
2022/10/08 02:24:55;;;;;;;15.10;7.43;;;;;;;7.62;100.00;98415.81;5129636;27;20076;-79
2022/10/08 02:27:28;;;;;;;13.38;7.43;;;;;;;7.68;100.00;98415.59;5111281;27;20038;-79
2022/10/08 02:30:04;;;;;;;17.70;7.22;;;;;;;7.75;100.00;98426.91;5129568;27;20047;-80
2022/10/08 02:32:37;;;;;;;18.10;7.00;;;;;;;7.73;100.00;98418.97;5128140;27;20054;-79
2022/10/08 02:35:16;;;;;;;14.18;7.43;;;;;;;7.74;100.00;98411.84;5125769;27;20031;-79
2022/10/08 02:37:52;;;;;;;22.70;8.23;;;;;;;7.73;100.00;98418.09;5100587;28;20089;-79
2022/10/08 02:40:18;;;;;;;16.42;7.70;;;;;;;7.61;100.00;98412.28;5122595;27;20029;-79
2022/10/08 02:42:48;;;;;;;16.55;8.23;;;;;;;7.68;100.00;98420.94;5126649;27;20079;-78
2022/10/08 02:45:27;;;;;;;16.50;7.78;;;;;;;7.75;100.00;98422.44;5121519;27;20046;-79
2022/10/08 02:48:03;;;;;;;17.17;8.00;;;;;;;7.74;100.00;98409.19;5126497;27;20049;-78
2022/10/08 02:50:29;;;;;;;15.38;8.05;;;;;;;7.64;100.00;98414.84;5126286;27;20088;-78
2022/10/08 02:52:55;;;;;;;16.70;8.20;;;;;;;7.67;100.00;98405.88;5125545;27;20042;-79
2022/10/08 02:55:33;;;;;;;15.95;7.05;;;;;;;7.57;100.00;98409.78;5114028;27;20031;-79
2022/10/08 02:58:01;;;;;;;18.48;7.82;;;;;;;7.49;100.00;98410.06;5141728;27;20034;-78
2022/10/08 03:00:34;;;;;;;14.65;7.72;;;;;;;7.49;100.00;98419.84;5128771;27;20082;-78
2022/10/08 03:03:32;;;;;;;11.15;6.82;;;;;;;7.55;100.00;98425.81;5111888;27;20027;-79
2022/10/08 03:06:01;;;;;;;10.35;6.05;;;;;;;7.56;100.00;98413.38;5125730;27;20077;-79
2022/10/08 03:08:27;;;;;;;9.90;6.20;;;;;;;7.46;100.00;98396.00;5112691;27;20145;-79
2022/10/08 03:10:53;;;;;;;14.95;6.53;;;;;;;7.43;100.00;98402.31;5113678;27;20035;-79
2022/10/08 03:13:19;;;;;;;13.07;6.20;;;;;;;7.35;100.00;98399.03;5147286;27;20029;-80
2022/10/08 03:15:47;;;;;;;10.20;6.00;;;;;;;7.45;100.00;98410.22;5128022;27;20030;-79
2022/10/08 03:18:13;;;;;;;13.55;6.88;;;;;;;7.48;100.00;98397.69;5128105;27;20023;-80
2022/10/08 03:20:43;;;;;;;12.77;6.25;;;;;;;7.42;100.00;98391.69;5129311;27;20352;-80
2022/10/08 03:23:09;;;;;;;16.63;6.32;;;;;;;7.58;100.00;98411.53;5100492;27;20593;-81
2022/10/08 03:25:34;;;;;;;15.73;6.60;;;;;;;7.62;100.00;98399.84;5122190;27;20083;-79
2022/10/08 03:28:00;;;;;;;14.93;7.00;;;;;;;7.67;100.00;98397.00;5121979;27;20500;-79
2022/10/08 03:30:25;;;;;;;10.93;6.38;;;;;;;7.71;100.00;98390.66;5103914;27;20518;-79
2022/10/08 03:32:51;;;;;;;14.55;7.43;;;;;;;7.74;100.00;98399.41;5125540;27;20485;-80
2022/10/08 03:35:16;;;;;;;16.25;7.90;;;;;;;7.80;100.00;98401.84;5125316;27;20115;-79
2022/10/08 03:37:42;;;;;;;27.10;7.90;;;;;;;7.85;100.00;98399.84;5121387;27;20022;-79
2022/10/08 03:40:08;;;;;;;13.70;7.95;;;;;;;7.93;100.00;98415.56;5148889;27;20031;-79
2022/10/08 03:42:34;;;;;;;17.50;8.02;;;;;;;7.91;100.00;98399.63;5130865;27;20023;-79
2022/10/08 03:45:00;;;;;;;21.25;8.48;;;;;;;7.99;100.00;98416.22;5126979;27;20018;-78
2022/10/08 03:47:26;;;;;;;23.10;8.45;;;;;;;7.96;100.00;98404.78;5127131;27;20023;-80
2022/10/08 03:49:51;;;;;;;17.48;7.78;;;;;;;7.95;100.00;98397.72;5125867;27;20041;-79
2022/10/08 03:52:17;;;;;;;14.00;6.82;;;;;;;7.94;100.00;98402.16;5128933;27;20430;-80
2022/10/08 03:54:42;;;;;;;35.85;12.80;;;;;;;7.86;100.00;98398.94;5105483;27;20091;-80
2022/10/08 03:57:08;;;;;;;92.30;30.02;;;;;;;7.80;100.00;98385.84;5112327;27;20086;-79
2022/10/08 03:59:33;;;;;;;93.35;31.02;;;;;;;7.84;100.00;98402.59;5131101;27;20038;-80
2022/10/08 04:01:59;;;;;;;87.00;28.80;;;;;;;7.86;100.00;98401.59;5146492;27;20023;-78
2022/10/08 04:04:24;;;;;;;25.80;11.73;;;;;;;7.86;100.00;98403.41;5097969;27;20102;-79
2022/10/08 04:06:50;;;;;;;20.70;10.18;;;;;;;7.78;100.00;98392.16;5110494;27;20048;-79
2022/10/08 04:09:15;;;;;;;25.83;10.35;;;;;;;7.80;100.00;98399.16;5108682;27;20099;-79
2022/10/08 04:11:41;;;;;;;24.45;10.07;;;;;;;7.85;100.00;98397.19;5124668;27;20058;-79
2022/10/08 04:14:06;;;;;;;21.80;9.55;;;;;;;7.95;100.00;98414.56;5110353;27;20038;-78
2022/10/08 04:16:32;;;;;;;30.95;9.95;;;;;;;7.95;100.00;98414.56;5128469;27;20023;-79
2022/10/08 04:18:57;;;;;;;22.08;10.13;;;;;;;7.97;100.00;98412.72;5110605;27;20084;-79
2022/10/08 04:21:23;;;;;;;21.05;9.82;;;;;;;8.10;100.00;98419.31;5107852;27;20061;-78
2022/10/08 04:23:49;;;;;;;36.70;14.75;;;;;;;8.12;100.00;98413.94;5124953;27;20089;-79
2022/10/08 04:26:15;;;;;;;25.15;11.20;;;;;;;8.11;100.00;98409.53;5127817;28;20042;-78
2022/10/08 04:28:46;;;;;;;21.33;9.93;;;;;;;8.07;100.00;98408.78;5111152;28;20378;-79
2022/10/08 04:31:16;;;;;;;21.10;11.00;;;;;;;8.08;100.00;98415.84;5106185;28;20051;-79
2022/10/08 04:33:42;;;;;;;42.20;17.40;;;;;;;8.02;100.00;98409.88;5122058;28;20121;-79
2022/10/08 04:36:09;;;;;;;41.83;18.63;;;;;;;7.87;100.00;98390.03;5121383;28;20123;-78
2022/10/08 04:38:35;;;;;;;47.35;18.80;;;;;;;7.84;100.00;98390.16;5115254;27;20023;-81
2022/10/08 04:41:11;;;;;;;34.72;16.05;;;;;;;7.79;100.00;98386.78;5124032;27;20080;-78
2022/10/08 04:43:38;;;;;;;19.65;10.55;;;;;;;7.87;100.00;98398.03;5120870;27;20027;-79
2022/10/08 04:46:06;;;;;;;17.52;9.60;;;;;;;7.77;100.00;98387.75;5123142;27;20023;-80
2022/10/08 04:48:31;;;;;;;25.52;9.88;;;;;;;7.77;100.00;98399.28;5123016;27;20027;-78
2022/10/08 04:50:59;;;;;;;16.58;8.75;;;;;;;7.79;100.00;98391.22;5102624;27;20522;-78
2022/10/08 04:53:25;;;;;;;19.48;9.65;;;;;;;7.81;100.00;98397.38;5119202;27;20091;-78
2022/10/08 04:55:51;;;;;;;17.83;9.57;;;;;;;7.87;100.00;98397.16;5117516;27;20022;-80
2022/10/08 04:58:17;;;;;;;17.48;9.95;;;;;;;8.04;100.00;98413.34;5127792;27;20076;-77
2022/10/08 05:00:44;;;;;;;29.58;10.20;;;;;;;8.21;100.00;98413.59;5120611;27;20474;-84
2022/10/08 05:03:09;;;;;;;19.70;9.40;;;;;;;8.44;100.00;98418.03;5102152;27;20059;-80
2022/10/08 05:05:40;;;;;;;26.08;9.52;;;;;;;8.81;100.00;98434.31;5119070;27;20035;-78
2022/10/08 05:08:05;;;;;;;31.83;14.95;;;;;;;9.19;100.00;98430.94;5114663;27;20023;-79
2022/10/08 05:10:31;;;;;;;24.00;10.73;;;;;;;9.02;100.00;98396.06;5120217;27;20049;-78
2022/10/08 05:12:57;;;;;;;24.83;11.18;;;;;;;8.75;100.00;98367.88;5137197;27;20038;-78
2022/10/08 05:15:22;;;;;;;34.53;12.13;;;;;;;8.54;100.00;98371.44;5134745;27;20026;-79
2022/10/08 05:17:48;;;;;;;26.63;12.52;;;;;;;8.45;100.00;98361.13;5114773;27;20413;-78
2022/10/08 05:20:13;;;;;;;25.25;13.18;;;;;;;8.30;100.00;98362.63;5132006;27;20023;-78
2022/10/08 05:22:39;;;;;;;36.70;13.90;;;;;;;8.18;100.00;98357.75;5133253;27;20027;-77
2022/10/08 05:25:05;;;;;;;28.60;14.30;;;;;;;8.10;100.00;98360.69;5117044;27;20053;-78
2022/10/08 05:27:31;;;;;;;33.55;14.88;;;;;;;8.00;100.00;98356.66;5114321;27;20019;-78
2022/10/08 05:29:56;;;;;;;25.33;12.65;;;;;;;7.97;100.00;98350.56;5109364;28;20333;-78
2022/10/08 05:32:22;;;;;;;24.45;11.70;;;;;;;7.93;100.00;98352.50;5119201;28;20024;-79
2022/10/08 05:34:47;;;;;;;27.40;11.52;;;;;;;7.85;100.00;98346.59;5124962;28;20131;-80
2022/10/08 05:37:13;;;;;;;25.75;10.93;;;;;;;7.84;100.00;98346.66;5110256;28;20057;-79
2022/10/08 05:39:38;;;;;;;22.05;11.18;;;;;;;7.93;100.00;98356.97;5125457;28;20019;-79
2022/10/08 05:42:04;;;;;;;26.35;13.35;;;;;;;8.07;100.00;98371.47;5105876;28;20024;-78
2022/10/08 05:44:29;;;;;;;31.38;12.38;;;;;;;8.04;100.00;98360.94;5124480;28;20016;-80
2022/10/08 05:46:55;;;;;;;32.78;11.70;;;;;;;8.08;100.00;98359.91;5129890;28;20076;-79
2022/10/08 05:49:22;;;;;;;26.40;11.85;;;;;;;8.29;100.00;98378.66;5102351;28;20313;-77
2022/10/08 05:51:48;;;;;;;32.72;12.30;;;;;;;8.55;100.00;98390.00;5104388;28;20062;-78
2022/10/08 05:54:15;;;;;;;22.45;11.25;;;;;;;8.57;100.00;98371.31;5116575;28;20011;-79
2022/10/08 05:56:41;;;;;;;31.25;12.70;;;;;;;8.76;100.00;98377.63;5127179;28;20028;-80
2022/10/08 05:59:06;;;;;;;29.60;12.57;;;;;;;9.06;100.00;98391.47;5127490;28;20058;-78
2022/10/08 06:01:32;;;;;;;72.82;32.95;;;;;;;9.13;100.00;98385.81;5118480;28;20363;-80
2022/10/08 06:04:04;;;;;;;38.45;15.55;;;;;;;9.31;100.00;98396.63;5116949;28;20015;-80
2022/10/08 06:06:31;;;;;;;32.53;14.43;;;;;;;9.41;100.00;98381.97;5082979;28;20035;-79
2022/10/08 06:08:59;;;;;;;35.90;16.40;;;;;;;9.48;100.00;98386.94;5109713;28;20033;-79
2022/10/08 06:11:25;;;;;;;35.83;15.32;;;;;;;9.43;100.00;98358.72;5106014;28;20023;-79
2022/10/08 06:13:57;;;;;;;28.92;15.00;;;;;;;9.45;100.00;98363.03;5123558;28;20023;-78
2022/10/08 06:16:24;;;;;;;30.85;13.43;;;;;;;9.65;100.00;98376.41;5117465;28;20035;-78
2022/10/08 06:18:52;;;;;;;40.30;15.88;;;;;;;9.80;100.00;98372.16;5120779;28;20092;-81
2022/10/08 06:21:20;;;;;;;39.47;13.32;;;;;;;9.89;100.00;98373.53;5108629;28;20482;-80
2022/10/08 06:23:54;;;;;;;20.08;11.60;;;;;;;10.48;100.00;98400.19;5112140;28;20112;-80
2022/10/08 06:26:21;;;;;;;24.80;12.13;;;;;;;10.81;100.00;98378.00;5120911;28;20076;-80
2022/10/08 06:28:47;;;;;;;31.38;15.63;;;;;;;11.09;100.00;98384.63;5091578;28;20019;-79
2022/10/08 06:31:13;;;;;;;34.67;16.77;;;;;;;11.55;100.00;98380.47;5115421;28;20052;-78
2022/10/08 06:33:39;;;;;;;49.03;17.73;;;;;;;12.19;99.26;98388.63;5118523;28;20029;-79
2022/10/08 06:36:07;;;;;;;36.78;18.20;;;;;;;12.43;95.82;98373.84;5121725;28;20034;-79
2022/10/08 06:38:32;;;;;;;23.02;12.48;;;;;;;12.90;93.63;98371.13;5119320;28;20428;-79
2022/10/08 06:40:58;;;;;;;33.50;13.35;;;;;;;14.28;87.11;98390.44;5120787;28;20102;-79
2022/10/08 06:43:25;;;;;;;32.40;16.73;;;;;;;16.35;76.53;98364.66;5100379;28;20050;-79
2022/10/08 06:45:51;;;;;;;61.25;27.00;;;;;;;18.07;67.16;98273.94;5090375;28;20023;-80
2022/10/08 06:48:18;;;;;;;52.95;22.58;;;;;;;20.00;59.53;98219.34;5118488;28;20027;-80
2022/10/08 06:50:44;;;;;;;36.15;16.23;;;;;;;21.38;54.65;98170.31;5104777;28;20055;-79
2022/10/08 06:53:10;;;;;;;33.25;17.45;;;;;;;21.97;52.14;98127.22;5123198;28;20084;-79
2022/10/08 06:55:36;;;;;;;27.63;16.50;;;;;;;22.46;50.04;98111.41;5098431;28;20487;-79
2022/10/08 06:58:03;;;;;;;58.63;26.40;;;;;;;21.85;51.87;98098.44;5120839;28;20467;-80
2022/10/08 07:00:29;;;;;;;28.63;14.52;;;;;;;22.48;49.89;98087.56;5093023;28;20023;-78
2022/10/08 07:02:58;;;;;;;29.13;15.00;;;;;;;23.27;47.95;98082.94;5120382;28;20080;-80
2022/10/08 07:05:24;;;;;;;54.03;21.17;;;;;;;22.78;48.92;98075.41;5115071;28;20062;-80
2022/10/08 07:07:49;;;;;;;21.08;12.65;;;;;;;22.84;48.73;98075.66;5119222;28;20031;-79
2022/10/08 07:10:15;;;;;;;22.30;11.52;;;;;;;23.13;48.66;98058.97;5120993;28;20045;-79
2022/10/08 07:12:41;;;;;;;20.30;11.25;;;;;;;22.77;49.06;98047.28;5124441;28;20063;-80
2022/10/08 07:15:07;;;;;;;14.45;10.43;;;;;;;22.68;49.78;98045.50;5106919;28;20079;-79
2022/10/08 07:17:32;;;;;;;18.02;11.68;;;;;;;22.45;49.75;98047.84;5107596;28;20027;-78
2022/10/08 07:19:58;;;;;;;15.45;8.95;;;;;;;22.96;49.01;98038.91;5122314;28;20038;-78
2022/10/08 07:22:24;;;;;;;17.05;9.43;;;;;;;23.02;48.86;98040.97;5117881;28;20028;-78
2022/10/08 07:24:50;;;;;;;13.30;8.20;;;;;;;23.91;47.19;98041.44;5118707;28;20448;-80
2022/10/08 07:27:16;;;;;;;17.20;9.00;;;;;;;24.31;46.19;98028.91;5117624;28;20055;-79
2022/10/08 07:29:42;;;;;;;16.10;8.73;;;;;;;25.31;44.22;98026.66;5114666;28;20550;-79
2022/10/08 07:32:07;;;;;;;18.45;8.85;;;;;;;25.61;43.31;98028.63;5116531;28;20055;-79
2022/10/08 07:34:33;;;;;;;14.13;8.98;;;;;;;26.05;41.93;98012.50;5099813;28;20070;-80
2022/10/08 07:36:58;;;;;;;17.95;9.52;;;;;;;26.00;41.42;97997.59;5100919;28;20039;-80
2022/10/08 07:39:27;;;;;;;18.52;10.68;;;;;;;25.03;43.60;97996.09;5118307;28;20077;-78
2022/10/08 07:41:53;;;;;;;27.55;15.32;;;;;;;26.11;42.17;97989.81;5116758;28;20047;-79
2022/10/08 07:44:18;;;;;;;33.22;19.40;;;;;;;24.60;43.89;97985.50;5101774;28;20020;-80
2022/10/08 07:46:49;;;;;;;34.13;19.25;;;;;;;24.57;44.22;97983.13;5101446;28;20039;-78
2022/10/08 07:49:28;;;;;;;39.28;20.38;;;;;;;24.25;44.64;97971.13;5110734;28;20027;-79
2022/10/08 07:51:54;;;;;;;34.47;16.98;;;;;;;23.31;46.83;97977.00;5122402;28;20116;-77
2022/10/08 07:54:20;;;;;;;25.13;14.48;;;;;;;23.71;46.01;97955.31;5119521;28;20035;-79
2022/10/08 07:56:45;;;;;;;28.10;13.77;;;;;;;23.85;46.40;97981.13;5103000;28;20041;-78
2022/10/08 07:59:13;;;;;;;24.52;12.73;;;;;;;23.78;46.88;97966.44;5102688;28;20016;-78
2022/10/08 08:01:40;;;;;;;28.00;12.05;;;;;;;24.90;44.98;97982.06;5113523;27;20398;-78
2022/10/08 08:04:07;;;;;;;27.30;15.63;;;;;;;24.57;45.86;97962.09;5113513;28;20020;-79
2022/10/08 08:06:38;;;;;;;23.75;12.98;;;;;;;23.91;47.40;97962.19;5100637;28;20486;-78
2022/10/08 08:09:04;;;;;;;26.45;12.30;;;;;;;24.40;46.73;97967.72;5098474;28;20031;-78
2022/10/08 08:11:29;;;;;;;19.42;11.43;;;;;;;25.27;44.94;97971.38;5094060;28;20028;-80
2022/10/08 08:13:55;;;;;;;20.95;11.57;;;;;;;26.03;43.37;97956.94;5118001;28;20093;-79
2022/10/08 08:16:26;;;;;;;29.90;13.55;;;;;;;26.27;42.46;97958.72;5114144;28;20031;-79
2022/10/08 08:18:54;;;;;;;32.58;13.43;;;;;;;26.70;42.23;97963.44;5096812;28;20034;-80
2022/10/08 08:21:23;;;;;;;21.45;12.02;;;;;;;26.58;42.01;97947.66;5097984;28;20054;-78
2022/10/08 08:23:51;;;;;;;21.13;12.85;;;;;;;27.18;40.92;97955.78;5115043;28;20023;-79
2022/10/08 08:26:16;;;;;;;17.05;10.52;;;;;;;26.54;42.38;97947.16;5112014;28;20519;-80
2022/10/08 08:28:42;;;;;;;17.65;10.55;;;;;;;26.82;41.40;97944.69;5111230;28;20038;-79
2022/10/08 08:31:23;;;;;;;23.83;10.05;;;;;;;27.68;40.62;97952.28;5087453;28;20529;-79
2022/10/08 08:34:00;;;;;;;11.30;7.57;;;;;;;28.20;39.07;97935.53;5107059;28;20020;-77
2022/10/08 08:36:31;;;;;;;12.68;6.68;;;;;;;28.32;39.30;97934.84;5109819;28;20031;-79
2022/10/08 08:38:57;;;;;;;14.27;8.18;;;;;;;28.53;38.53;97923.78;5109904;28;20032;-79
2022/10/08 08:41:41;;;;;;;12.07;6.30;;;;;;;28.43;38.28;97923.28;5109812;28;20107;-78
2022/10/08 08:44:16;;;;;;;11.80;6.03;;;;;;;27.93;39.25;97906.88;5110714;28;20474;-78
2022/10/08 08:46:45;;;;;;;12.25;6.10;;;;;;;28.97;38.20;97930.94;5126806;28;20054;-80
2022/10/08 08:49:31;;;;;;;19.08;6.00;;;;;;;28.42;39.17;97913.34;5109780;28;20407;-80
2022/10/08 08:51:58;;;;;;;11.63;5.78;;;;;;;28.08;39.51;97904.97;5110000;28;20121;-79
2022/10/08 08:54:24;;;;;;;14.27;5.68;;;;;;;28.78;38.40;97907.72;5092752;28;20027;-78
2022/10/08 08:56:51;;;;;;;14.05;4.93;;;;;;;28.60;37.94;97896.31;5092635;28;20116;-80
2022/10/08 08:59:31;;;;;;;11.43;6.30;;;;;;;29.45;37.38;97905.19;5109888;28;20100;-79
2022/10/08 09:02:04;;;;;;;7.05;4.55;;;;;;;28.61;37.72;97894.41;5109746;28;20055;-80
2022/10/08 09:04:44;;;;;;;12.27;5.57;;;;;;;29.37;37.11;97894.34;5092882;28;20077;-81
2022/10/08 09:07:17;;;;;;;9.30;4.88;;;;;;;28.61;38.58;97884.22;5109925;28;20020;-80
2022/10/08 09:09:43;;;;;;;18.90;5.30;;;;;;;29.49;37.19;97887.16;5112690;28;20106;-81
2022/10/08 09:12:19;;;;;;;21.17;5.55;;;;;;;29.40;36.59;97874.63;5096150;28;20402;-81
2022/10/08 09:14:56;;;;;;;11.57;5.05;;;;;;;28.81;37.32;97860.50;5127154;28;20024;-80
2022/10/08 09:17:28;;;;;;;8.25;4.95;;;;;;;28.90;38.04;97873.03;5110295;28;20367;-81
2022/10/08 09:19:53;;;;;;;9.25;5.07;;;;;;;30.41;35.56;97878.31;5111611;28;20028;-80
2022/10/08 09:22:20;;;;;;;15.63;8.82;;;;;;;30.95;34.07;97872.53;5096700;28;20042;-80
2022/10/08 09:24:50;;;;;;;8.60;4.47;;;;;;;30.66;34.73;97862.78;5118272;28;20020;-80
2022/10/08 09:27:15;;;;;;;7.60;4.60;;;;;;;30.95;33.67;97858.72;5115277;28;20023;-79
2022/10/08 09:29:44;;;;;;;7.10;4.25;;;;;;;31.12;33.86;97855.28;5114352;28;20048;-81
2022/10/08 09:32:15;;;;;;;7.63;4.25;;;;;;;30.05;35.17;97842.78;5096871;28;20024;-79
2022/10/08 09:34:42;;;;;;;5.50;4.25;;;;;;;30.99;33.99;97848.94;5097472;28;20096;-80
2022/10/08 09:37:27;;;;;;;4.72;3.63;;;;;;;31.10;33.68;97840.00;5097953;28;20477;-79
2022/10/08 09:40:11;;;;;;;13.52;3.65;;;;;;;32.49;32.14;97852.84;5092547;28;20130;-79
2022/10/08 09:42:37;;;;;;;8.00;3.95;;;;;;;31.93;32.89;97827.88;5116541;28;20020;-79
2022/10/08 09:45:30;;;;;;;7.28;4.03;;;;;;;31.53;33.19;97830.03;5119156;28;20020;-78
2022/10/08 09:48:23;;;;;;;6.22;3.60;;;;;;;30.97;33.84;97817.91;5095679;28;20040;-80
2022/10/08 09:50:53;;;;;;;7.28;3.63;;;;;;;32.09;32.62;97832.06;5089949;28;20480;-80
2022/10/08 09:53:19;;;;;;;5.70;3.78;;;;;;;31.64;33.02;97812.75;5098018;28;20504;-80
2022/10/08 09:55:53;;;;;;;4.35;3.80;;;;;;;32.14;32.40;97810.09;5114675;28;20027;-80
2022/10/08 09:58:19;;;;;;;8.02;3.92;;;;;;;33.80;30.37;97820.06;5131667;27;20031;-79
2022/10/08 10:00:54;;;;;;;6.63;3.95;;;;;;;33.78;30.56;97811.97;5095968;28;20035;-78
2022/10/08 10:03:20;;;;;;;5.57;3.10;;;;;;;32.68;31.40;97787.25;5113253;28;20445;-80
2022/10/08 10:05:50;;;;;;;4.53;3.33;;;;;;;32.18;32.18;97787.25;5097140;28;20012;-79
2022/10/08 10:08:47;;;;;;;5.47;3.65;;;;;;;32.57;31.24;97793.56;5096661;28;20118;-79
2022/10/08 10:11:21;;;;;;;7.30;3.88;;;;;;;33.17;31.06;97789.91;5103769;28;20423;-79
2022/10/08 10:13:48;;;;;;;5.32;4.47;;;;;;;33.60;30.27;97784.25;5114088;28;20107;-79
2022/10/08 10:16:19;;;;;;;14.68;9.85;;;;;;;33.28;30.54;97757.78;5112494;28;20028;-80
2022/10/08 10:18:57;;;;;;;5.22;3.65;;;;;;;33.52;30.22;97765.13;5112367;28;20026;-80
2022/10/08 10:21:48;;;;;;;4.07;3.30;;;;;;;34.00;29.06;97767.00;5112369;28;20110;-81
2022/10/08 10:24:22;;;;;;;10.90;3.88;;;;;;;32.76;30.46;97741.78;5113994;28;20019;-79
2022/10/08 10:26:49;;;;;;;9.65;3.75;;;;;;;33.18;30.30;97743.63;5114250;28;20083;-80
2022/10/08 10:29:21;;;;;;;8.82;5.65;;;;;;;31.49;31.90;97726.44;5118289;27;20063;-80
2022/10/08 10:31:57;;;;;;;;;;;;;;;32.62;30.89;97747.47;5100349;27;20031;-79
2022/10/08 10:34:32;;;;;;;7.05;3.40;;;;;;;33.48;30.03;97750.03;5133632;27;19958;-78
2022/10/08 10:37:05;;;;;;;20.60;3.90;;;;;;;34.92;27.98;97755.13;5116613;27;20075;-79
2022/10/08 10:39:48;;;;;;;3.80;3.20;;;;;;;33.32;29.42;97719.34;5117345;27;20067;-79
2022/10/08 10:42:18;;;;;;;10.15;3.83;;;;;;;32.07;31.46;97712.41;5117428;27;20027;-79
2022/10/08 10:44:56;;;;;;;6.35;3.30;;;;;;;32.35;30.63;97711.91;5100638;27;20106;-79
2022/10/08 10:47:28;;;;;;;4.38;3.45;;;;;;;32.36;30.83;97708.06;5100672;27;20031;-79
2022/10/08 10:49:54;;;;;;;8.02;3.70;;;;;;;32.51;30.95;97703.88;5100836;27;20023;-79
2022/10/08 10:52:35;;;;;;;8.82;3.75;;;;;;;32.86;30.63;97723.50;5118323;27;20025;-79
2022/10/08 10:55:26;;;;;;;4.05;3.08;;;;;;;33.14;30.10;97714.66;5117631;27;20045;-80
2022/10/08 10:58:07;;;;;;;5.38;3.50;;;;;;;32.25;30.98;97695.81;5136167;27;20453;-79
2022/10/08 11:00:59;;;;;;;5.03;3.55;;;;;;;31.45;31.66;97675.38;5136214;27;20027;-79
2022/10/08 11:03:55;;;;;;;7.82;4.43;;;;;;;32.06;31.52;97700.47;5134604;27;22589;-79
2022/10/08 11:06:21;;;;;;;5.40;3.47;;;;;;;32.01;31.24;97672.59;5134686;27;20027;-79
2022/10/08 11:08:55;;;;;;;5.35;3.20;;;;;;;30.89;32.25;97661.44;5134417;27;20039;-79
2022/10/08 11:11:27;;;;;;;5.95;3.90;;;;;;;32.14;30.89;97680.81;5135140;27;20379;-79
2022/10/08 11:14:11;;;;;;;6.25;3.30;;;;;;;33.29;29.38;97679.00;5135930;27;20027;-86
2022/10/08 11:17:04;;;;;;;9.27;3.72;;;;;;;33.49;28.98;97674.03;5116643;27;20083;-80
2022/10/08 11:19:45;;;;;;;3.47;2.92;;;;;;;34.44;28.06;97683.13;5115248;27;20492;-80
2022/10/08 11:22:49;;;;;;;5.47;3.30;;;;;;;35.79;26.64;97680.66;5116679;27;20023;-80
2022/10/08 11:25:25;;;;;;;3.90;3.05;;;;;;;36.53;26.00;97679.38;5116963;27;20417;-79
2022/10/08 11:28:21;;;;;;;4.53;2.75;;;;;;;36.19;25.79;97661.00;5095193;27;20060;-82
2022/10/08 11:30:50;;;;;;;3.58;2.53;;;;;;;36.51;25.80;97662.06;5111649;27;20055;-83
2022/10/08 11:33:16;;;;;;;5.30;2.92;;;;;;;36.28;26.09;97639.97;5094659;27;20027;-83
2022/10/08 11:35:48;;;;;;;8.15;3.80;;;;;;;34.15;27.58;97611.84;5111352;27;20144;-83
2022/10/08 11:38:19;;;;;;;9.73;3.78;;;;;;;33.71;28.37;97625.25;5125131;27;20027;-82
2022/10/08 11:41:06;;;;;;;7.57;4.72;;;;;;;34.17;28.12;97615.25;5094482;27;20486;-83